KDLP

West Delta 27A Airport

West Delta, Mississippi, USA
METAR KDLP 242115Z AUTO 20006KT 10SM CLR 30/24 A2992 RMK A01
Observed Flight Rules
Sep-24 @ 21:15 UTC (9 minutes ago) Visual Flight Rules
Wind Visibility Clouds
200° at 6 knots 10 miles
  • Clear skies
Temperatures Readings
Current 30°C / 86°F
Dewpoint 24°C / 75°F
Humidity 70%
Altimeter 29.92" Hg
Pressure 1013 hPa
Elevation 36
METAR KDLP 242115Z AUTO 20006KT 10SM CLR 30/24 A2992 RMK A01
Observed Flight Rules
Sep-24 @ 21:15 UTC
(9 minutes ago)
VFR
Wind Visibility
200° at 6 knots 10 miles
Clouds
  • Clear skies
Temperature Dewpoint
30°C / 86°F 24°C / 75°F
Humidity Altimeter Pressure
70% 29.92" Hg 1013 hPa